sensor_id;sensor_type;location;lat;lon;timestamp;P1;durP1;ratioP1;P2;durP2;ratioP2
76765;SDS011;65707;52.362;6.588;2023-10-08T00:03:29;21.42;;;4.65;;
76765;SDS011;65707;52.362;6.588;2023-10-08T00:05:57;23.02;;;4.53;;
76765;SDS011;65707;52.362;6.588;2023-10-08T00:08:24;20.13;;;4.72;;
76765;SDS011;65707;52.362;6.588;2023-10-08T00:10:52;23.08;;;5.72;;
76765;SDS011;65707;52.362;6.588;2023-10-08T00:13:22;21.42;;;5.82;;
76765;SDS011;65707;52.362;6.588;2023-10-08T00:15:49;19.92;;;4.95;;
76765;SDS011;65707;52.362;6.588;2023-10-08T00:18:17;20.77;;;5.22;;
76765;SDS011;65707;52.362;6.588;2023-10-08T00:20:44;18.83;;;5.22;;
76765;SDS011;65707;52.362;6.588;2023-10-08T00:23:19;20.08;;;5.03;;
76765;SDS011;65707;52.362;6.588;2023-10-08T00:25:47;27.38;;;5.35;;
76765;SDS011;65707;52.362;6.588;2023-10-08T00:28:16;19.73;;;5.38;;
76765;SDS011;65707;52.362;6.588;2023-10-08T00:30:46;21.58;;;5.55;;
76765;SDS011;65707;52.362;6.588;2023-10-08T00:33:13;21.17;;;5.70;;
76765;SDS011;65707;52.362;6.588;2023-10-08T00:35:40;22.35;;;5.50;;
76765;SDS011;65707;52.362;6.588;2023-10-08T00:38:08;21.38;;;5.93;;
76765;SDS011;65707;52.362;6.588;2023-10-08T00:40:40;19.50;;;5.43;;
76765;SDS011;65707;52.362;6.588;2023-10-08T00:43:10;22.83;;;5.88;;
76765;SDS011;65707;52.362;6.588;2023-10-08T00:45:58;18.50;;;5.28;;
76765;SDS011;65707;52.362;6.588;2023-10-08T00:48:41;20.75;;;5.40;;
76765;SDS011;65707;52.362;6.588;2023-10-08T00:51:10;20.77;;;5.57;;
76765;SDS011;65707;52.362;6.588;2023-10-08T00:53:51;17.35;;;5.32;;
76765;SDS011;65707;52.362;6.588;2023-10-08T00:56:25;22.55;;;5.80;;
76765;SDS011;65707;52.362;6.588;2023-10-08T00:59:12;24.65;;;5.78;;
76765;SDS011;65707;52.362;6.588;2023-10-08T01:04:12;23.65;;;5.47;;
76765;SDS011;65707;52.362;6.588;2023-10-08T01:06:42;21.15;;;5.45;;
76765;SDS011;65707;52.362;6.588;2023-10-08T01:09:12;20.13;;;5.47;;
76765;SDS011;65707;52.362;6.588;2023-10-08T01:11:43;23.08;;;6.10;;
76765;SDS011;65707;52.362;6.588;2023-10-08T01:14:16;20.30;;;5.75;;
76765;SDS011;65707;52.362;6.588;2023-10-08T01:16:46;22.30;;;6.30;;
76765;SDS011;65707;52.362;6.588;2023-10-08T01:19:17;25.23;;;6.78;;
76765;SDS011;65707;52.362;6.588;2023-10-08T01:21:45;23.05;;;7.28;;
76765;SDS011;65707;52.362;6.588;2023-10-08T01:24:14;8.77;;;3.00;;
76765;SDS011;65707;52.362;6.588;2023-10-08T01:26:42;6.90;;;1.95;;
76765;SDS011;65707;52.362;6.588;2023-10-08T01:29:11;8.18;;;1.73;;
76765;SDS011;65707;52.362;6.588;2023-10-08T01:31:44;4.93;;;1.73;;
76765;SDS011;65707;52.362;6.588;2023-10-08T01:34:12;6.72;;;2.03;;
76765;SDS011;65707;52.362;6.588;2023-10-08T01:36:42;6.80;;;1.90;;
76765;SDS011;65707;52.362;6.588;2023-10-08T01:39:10;7.15;;;2.50;;
76765;SDS011;65707;52.362;6.588;2023-10-08T01:41:43;6.25;;;2.30;;
76765;SDS011;65707;52.362;6.588;2023-10-08T01:44:11;6.97;;;2.47;;
76765;SDS011;65707;52.362;6.588;2023-10-08T01:46:38;6.45;;;2.25;;
76765;SDS011;65707;52.362;6.588;2023-10-08T01:49:06;8.60;;;2.17;;
76765;SDS011;65707;52.362;6.588;2023-10-08T01:51:39;7.60;;;2.40;;
76765;SDS011;65707;52.362;6.588;2023-10-08T01:54:11;8.00;;;2.25;;
76765;SDS011;65707;52.362;6.588;2023-10-08T01:56:40;8.10;;;2.40;;
76765;SDS011;65707;52.362;6.588;2023-10-08T01:59:10;6.13;;;2.00;;
76765;SDS011;65707;52.362;6.588;2023-10-08T02:01:39;8.10;;;1.83;;
76765;SDS011;65707;52.362;6.588;2023-10-08T02:04:06;6.75;;;1.90;;
76765;SDS011;65707;52.362;6.588;2023-10-08T02:06:34;7.78;;;2.30;;
76765;SDS011;65707;52.362;6.588;2023-10-08T02:09:02;6.75;;;2.17;;
76765;SDS011;65707;52.362;6.588;2023-10-08T02:11:40;6.38;;;2.20;;
76765;SDS011;65707;52.362;6.588;2023-10-08T02:14:17;6.57;;;1.70;;
76765;SDS011;65707;52.362;6.588;2023-10-08T02:16:45;6.47;;;1.77;;
76765;SDS011;65707;52.362;6.588;2023-10-08T02:19:12;9.52;;;2.10;;
76765;SDS011;65707;52.362;6.588;2023-10-08T02:21:43;9.57;;;1.98;;
76765;SDS011;65707;52.362;6.588;2023-10-08T02:24:11;6.38;;;1.80;;
76765;SDS011;65707;52.362;6.588;2023-10-08T02:26:38;6.20;;;1.85;;
76765;SDS011;65707;52.362;6.588;2023-10-08T02:29:08;7.50;;;1.73;;
76765;SDS011;65707;52.362;6.588;2023-10-08T02:31:38;8.52;;;1.83;;
76765;SDS011;65707;52.362;6.588;2023-10-08T02:34:06;6.43;;;1.45;;
76765;SDS011;65707;52.362;6.588;2023-10-08T02:36:34;6.43;;;1.58;;
76765;SDS011;65707;52.362;6.588;2023-10-08T02:39:02;5.97;;;1.50;;
76765;SDS011;65707;52.362;6.588;2023-10-08T02:41:38;6.15;;;1.65;;
76765;SDS011;65707;52.362;6.588;2023-10-08T02:44:06;6.25;;;1.48;;
76765;SDS011;65707;52.362;6.588;2023-10-08T02:46:38;5.57;;;1.40;;
76765;SDS011;65707;52.362;6.588;2023-10-08T02:49:06;6.38;;;1.50;;
76765;SDS011;65707;52.362;6.588;2023-10-08T02:51:36;7.40;;;1.50;;
76765;SDS011;65707;52.362;6.588;2023-10-08T02:54:04;6.35;;;1.70;;
76765;SDS011;65707;52.362;6.588;2023-10-08T02:56:33;7.50;;;1.80;;
76765;SDS011;65707;52.362;6.588;2023-10-08T02:58:59;8.82;;;2.10;;
76765;SDS011;65707;52.362;6.588;2023-10-08T03:01:26;7.05;;;1.60;;
76765;SDS011;65707;52.362;6.588;2023-10-08T03:04:00;6.55;;;1.77;;
76765;SDS011;65707;52.362;6.588;2023-10-08T03:06:29;7.45;;;2.03;;
76765;SDS011;65707;52.362;6.588;2023-10-08T03:08:57;5.88;;;1.70;;
76765;SDS011;65707;52.362;6.588;2023-10-08T03:11:29;5.93;;;1.83;;
76765;SDS011;65707;52.362;6.588;2023-10-08T03:13:56;7.05;;;1.67;;
76765;SDS011;65707;52.362;6.588;2023-10-08T03:16:24;8.10;;;1.83;;
76765;SDS011;65707;52.362;6.588;2023-10-08T03:18:53;6.50;;;1.73;;
76765;SDS011;65707;52.362;6.588;2023-10-08T03:21:23;6.70;;;1.90;;
76765;SDS011;65707;52.362;6.588;2023-10-08T03:24:13;5.63;;;1.73;;
76765;SDS011;65707;52.362;6.588;2023-10-08T03:26:55;6.88;;;2.00;;
76765;SDS011;65707;52.362;6.588;2023-10-08T03:29:31;5.80;;;1.80;;
76765;SDS011;65707;52.362;6.588;2023-10-08T03:32:05;5.95;;;1.98;;
76765;SDS011;65707;52.362;6.588;2023-10-08T03:34:38;7.63;;;2.00;;
76765;SDS011;65707;52.362;6.588;2023-10-08T03:37:09;8.98;;;2.03;;
76765;SDS011;65707;52.362;6.588;2023-10-08T03:39:40;7.40;;;2.17;;
76765;SDS011;65707;52.362;6.588;2023-10-08T03:42:20;7.90;;;2.05;;
76765;SDS011;65707;52.362;6.588;2023-10-08T03:44:47;6.93;;;2.00;;
76765;SDS011;65707;52.362;6.588;2023-10-08T03:47:16;7.68;;;2.20;;
76765;SDS011;65707;52.362;6.588;2023-10-08T03:49:44;6.55;;;2.10;;
76765;SDS011;65707;52.362;6.588;2023-10-08T03:52:16;6.10;;;1.95;;
76765;SDS011;65707;52.362;6.588;2023-10-08T03:54:47;6.53;;;2.10;;
76765;SDS011;65707;52.362;6.588;2023-10-08T03:57:28;7.20;;;1.75;;
76765;SDS011;65707;52.362;6.588;2023-10-08T04:00:07;8.20;;;2.13;;
76765;SDS011;65707;52.362;6.588;2023-10-08T04:02:38;6.70;;;2.10;;
76765;SDS011;65707;52.362;6.588;2023-10-08T04:05:06;6.88;;;2.03;;
76765;SDS011;65707;52.362;6.588;2023-10-08T04:07:46;6.57;;;2.42;;
76765;SDS011;65707;52.362;6.588;2023-10-08T04:10:27;7.15;;;2.28;;
76765;SDS011;65707;52.362;6.588;2023-10-08T04:13:33;6.72;;;2.45;;
76765;SDS011;65707;52.362;6.588;2023-10-08T04:16:04;6.55;;;2.10;;
76765;SDS011;65707;52.362;6.588;2023-10-08T04:18:31;8.32;;;2.42;;
76765;SDS011;65707;52.362;6.588;2023-10-08T04:21:05;6.80;;;2.40;;
76765;SDS011;65707;52.362;6.588;2023-10-08T04:23:39;8.20;;;2.08;;
76765;SDS011;65707;52.362;6.588;2023-10-08T04:26:09;9.32;;;2.78;;
76765;SDS011;65707;52.362;6.588;2023-10-08T04:28:37;7.60;;;2.67;;
76765;SDS011;65707;52.362;6.588;2023-10-08T04:31:06;7.45;;;2.40;;
76765;SDS011;65707;52.362;6.588;2023-10-08T04:33:41;7.22;;;2.30;;
76765;SDS011;65707;52.362;6.588;2023-10-08T04:36:09;7.22;;;2.60;;
76765;SDS011;65707;52.362;6.588;2023-10-08T04:41:20;7.65;;;2.40;;
76765;SDS011;65707;52.362;6.588;2023-10-08T04:43:52;7.78;;;2.63;;
76765;SDS011;65707;52.362;6.588;2023-10-08T04:46:20;7.30;;;2.20;;
76765;SDS011;65707;52.362;6.588;2023-10-08T04:49:11;8.15;;;2.63;;
76765;SDS011;65707;52.362;6.588;2023-10-08T04:51:52;7.18;;;2.50;;
76765;SDS011;65707;52.362;6.588;2023-10-08T04:54:23;7.25;;;2.67;;
76765;SDS011;65707;52.362;6.588;2023-10-08T04:56:56;7.38;;;2.60;;
76765;SDS011;65707;52.362;6.588;2023-10-08T04:59:24;7.32;;;2.60;;
76765;SDS011;65707;52.362;6.588;2023-10-08T05:01:57;7.38;;;2.75;;
76765;SDS011;65707;52.362;6.588;2023-10-08T05:04:42;9.38;;;2.80;;
76765;SDS011;65707;52.362;6.588;2023-10-08T05:07:21;7.13;;;2.53;;
76765;SDS011;65707;52.362;6.588;2023-10-08T05:10:03;8.57;;;2.85;;
76765;SDS011;65707;52.362;6.588;2023-10-08T05:12:56;8.68;;;2.67;;
76765;SDS011;65707;52.362;6.588;2023-10-08T05:15:40;7.80;;;2.60;;
76765;SDS011;65707;52.362;6.588;2023-10-08T05:18:15;7.93;;;2.88;;
76765;SDS011;65707;52.362;6.588;2023-10-08T05:20:48;8.32;;;2.88;;
76765;SDS011;65707;52.362;6.588;2023-10-08T05:23:41;9.57;;;2.85;;
76765;SDS011;65707;52.362;6.588;2023-10-08T05:26:33;10.65;;;3.00;;
76765;SDS011;65707;52.362;6.588;2023-10-08T05:29:25;7.63;;;2.78;;
76765;SDS011;65707;52.362;6.588;2023-10-08T05:32:17;7.90;;;2.58;;
76765;SDS011;65707;52.362;6.588;2023-10-08T05:35:04;9.18;;;2.70;;
76765;SDS011;65707;52.362;6.588;2023-10-08T05:37:49;8.10;;;2.42;;
76765;SDS011;65707;52.362;6.588;2023-10-08T05:40:27;8.30;;;2.55;;
76765;SDS011;65707;52.362;6.588;2023-10-08T05:43:08;8.48;;;2.78;;
76765;SDS011;65707;52.362;6.588;2023-10-08T05:45:59;8.02;;;2.67;;
76765;SDS011;65707;52.362;6.588;2023-10-08T05:48:40;8.40;;;2.72;;
76765;SDS011;65707;52.362;6.588;2023-10-08T05:53:59;8.55;;;2.58;;
76765;SDS011;65707;52.362;6.588;2023-10-08T05:56:35;8.50;;;2.90;;
76765;SDS011;65707;52.362;6.588;2023-10-08T06:01:56;9.77;;;2.80;;
76765;SDS011;65707;52.362;6.588;2023-10-08T06:04:31;8.77;;;3.08;;
76765;SDS011;65707;52.362;6.588;2023-10-08T06:07:18;8.80;;;2.67;;
76765;SDS011;65707;52.362;6.588;2023-10-08T06:09:58;9.48;;;3.33;;
76765;SDS011;65707;52.362;6.588;2023-10-08T06:12:38;9.40;;;2.85;;
76765;SDS011;65707;52.362;6.588;2023-10-08T06:15:14;9.70;;;2.55;;
76765;SDS011;65707;52.362;6.588;2023-10-08T06:17:53;8.25;;;2.60;;
76765;SDS011;65707;52.362;6.588;2023-10-08T06:20:29;8.57;;;2.85;;
76765;SDS011;65707;52.362;6.588;2023-10-08T06:22:56;8.27;;;2.70;;
76765;SDS011;65707;52.362;6.588;2023-10-08T06:25:28;10.77;;;2.78;;
76765;SDS011;65707;52.362;6.588;2023-10-08T06:27:55;8.73;;;2.60;;
76765;SDS011;65707;52.362;6.588;2023-10-08T06:30:22;8.48;;;2.55;;
76765;SDS011;65707;52.362;6.588;2023-10-08T06:32:57;7.57;;;2.45;;
76765;SDS011;65707;52.362;6.588;2023-10-08T06:35:26;8.80;;;2.83;;
76765;SDS011;65707;52.362;6.588;2023-10-08T06:37:54;7.88;;;2.67;;
76765;SDS011;65707;52.362;6.588;2023-10-08T06:40:24;7.20;;;2.30;;
76765;SDS011;65707;52.362;6.588;2023-10-08T06:43:13;11.02;;;3.03;;
76765;SDS011;65707;52.362;6.588;2023-10-08T06:45:49;7.28;;;2.33;;
76765;SDS011;65707;52.362;6.588;2023-10-08T06:48:19;7.28;;;2.50;;
76765;SDS011;65707;52.362;6.588;2023-10-08T06:50:49;7.88;;;2.50;;
76765;SDS011;65707;52.362;6.588;2023-10-08T06:53:21;7.18;;;2.08;;
76765;SDS011;65707;52.362;6.588;2023-10-08T06:55:49;7.82;;;2.70;;
76765;SDS011;65707;52.362;6.588;2023-10-08T06:58:21;10.02;;;2.70;;
76765;SDS011;65707;52.362;6.588;2023-10-08T07:00:49;8.95;;;2.65;;
76765;SDS011;65707;52.362;6.588;2023-10-08T07:03:17;8.70;;;2.40;;
76765;SDS011;65707;52.362;6.588;2023-10-08T07:05:48;11.40;;;3.08;;
76765;SDS011;65707;52.362;6.588;2023-10-08T07:08:25;9.20;;;2.40;;
76765;SDS011;65707;52.362;6.588;2023-10-08T07:10:56;11.32;;;2.60;;
76765;SDS011;65707;52.362;6.588;2023-10-08T07:13:26;8.43;;;2.70;;
76765;SDS011;65707;52.362;6.588;2023-10-08T07:15:54;10.23;;;2.88;;
76765;SDS011;65707;52.362;6.588;2023-10-08T07:18:22;9.93;;;2.65;;
76765;SDS011;65707;52.362;6.588;2023-10-08T07:20:55;9.23;;;2.35;;
76765;SDS011;65707;52.362;6.588;2023-10-08T07:23:26;8.27;;;2.50;;
76765;SDS011;65707;52.362;6.588;2023-10-08T07:25:59;10.70;;;2.70;;
76765;SDS011;65707;52.362;6.588;2023-10-08T07:28:35;9.25;;;2.78;;
76765;SDS011;65707;52.362;6.588;2023-10-08T07:31:04;8.23;;;2.30;;
76765;SDS011;65707;52.362;6.588;2023-10-08T07:33:35;8.60;;;2.47;;
76765;SDS011;65707;52.362;6.588;2023-10-08T07:36:04;8.30;;;2.53;;
76765;SDS011;65707;52.362;6.588;2023-10-08T07:38:39;8.40;;;2.50;;
76765;SDS011;65707;52.362;6.588;2023-10-08T07:41:07;10.30;;;2.38;;
76765;SDS011;65707;52.362;6.588;2023-10-08T07:43:37;8.50;;;2.83;;
76765;SDS011;65707;52.362;6.588;2023-10-08T07:46:08;9.45;;;2.20;;
76765;SDS011;65707;52.362;6.588;2023-10-08T07:48:35;8.05;;;2.10;;
76765;SDS011;65707;52.362;6.588;2023-10-08T07:51:10;7.18;;;1.85;;
76765;SDS011;65707;52.362;6.588;2023-10-08T07:53:39;9.93;;;2.70;;
76765;SDS011;65707;52.362;6.588;2023-10-08T07:56:07;7.78;;;2.13;;
76765;SDS011;65707;52.362;6.588;2023-10-08T07:58:37;9.15;;;2.22;;
76765;SDS011;65707;52.362;6.588;2023-10-08T08:01:05;12.38;;;2.50;;
76765;SDS011;65707;52.362;6.588;2023-10-08T08:03:34;6.70;;;1.70;;
76765;SDS011;65707;52.362;6.588;2023-10-08T08:06:05;6.80;;;1.80;;
76765;SDS011;65707;52.362;6.588;2023-10-08T08:08:36;8.68;;;1.80;;
76765;SDS011;65707;52.362;6.588;2023-10-08T08:11:05;6.55;;;1.73;;
76765;SDS011;65707;52.362;6.588;2023-10-08T08:13:37;8.30;;;1.83;;
76765;SDS011;65707;52.362;6.588;2023-10-08T08:16:07;7.38;;;1.83;;
76765;SDS011;65707;52.362;6.588;2023-10-08T08:18:41;8.40;;;1.65;;
76765;SDS011;65707;52.362;6.588;2023-10-08T08:21:11;9.50;;;2.00;;
76765;SDS011;65707;52.362;6.588;2023-10-08T08:23:45;5.88;;;1.30;;
76765;SDS011;65707;52.362;6.588;2023-10-08T08:26:19;7.85;;;1.83;;
76765;SDS011;65707;52.362;6.588;2023-10-08T08:28:54;8.90;;;1.58;;
76765;SDS011;65707;52.362;6.588;2023-10-08T08:31:25;9.95;;;1.73;;
76765;SDS011;65707;52.362;6.588;2023-10-08T08:33:52;6.97;;;1.77;;
76765;SDS011;65707;52.362;6.588;2023-10-08T08:36:22;7.43;;;1.98;;
76765;SDS011;65707;52.362;6.588;2023-10-08T08:38:54;10.80;;;1.95;;
76765;SDS011;65707;52.362;6.588;2023-10-08T08:41:27;8.52;;;1.73;;
76765;SDS011;65707;52.362;6.588;2023-10-08T08:43:54;6.47;;;1.58;;
76765;SDS011;65707;52.362;6.588;2023-10-08T08:46:28;9.18;;;1.80;;
76765;SDS011;65707;52.362;6.588;2023-10-08T08:49:00;9.57;;;1.67;;
76765;SDS011;65707;52.362;6.588;2023-10-08T08:51:32;9.90;;;1.55;;
76765;SDS011;65707;52.362;6.588;2023-10-08T08:54:02;7.25;;;1.55;;
76765;SDS011;65707;52.362;6.588;2023-10-08T08:56:32;7.43;;;1.58;;
76765;SDS011;65707;52.362;6.588;2023-10-08T08:59:04;7.97;;;1.45;;
76765;SDS011;65707;52.362;6.588;2023-10-08T09:01:31;8.80;;;1.60;;
76765;SDS011;65707;52.362;6.588;2023-10-08T09:04:01;8.10;;;1.80;;
76765;SDS011;65707;52.362;6.588;2023-10-08T09:06:30;10.15;;;1.60;;
76765;SDS011;65707;52.362;6.588;2023-10-08T09:08:59;8.20;;;1.60;;
76765;SDS011;65707;52.362;6.588;2023-10-08T09:11:40;7.63;;;1.48;;
76765;SDS011;65707;52.362;6.588;2023-10-08T09:14:12;6.43;;;1.40;;
76765;SDS011;65707;52.362;6.588;2023-10-08T09:16:38;7.78;;;1.30;;
76765;SDS011;65707;52.362;6.588;2023-10-08T09:19:05;6.97;;;1.35;;
76765;SDS011;65707;52.362;6.588;2023-10-08T09:21:37;10.43;;;1.83;;
76765;SDS011;65707;52.362;6.588;2023-10-08T09:24:04;8.57;;;1.52;;
76765;SDS011;65707;52.362;6.588;2023-10-08T09:26:36;8.73;;;1.67;;
76765;SDS011;65707;52.362;6.588;2023-10-08T09:29:06;8.38;;;1.63;;
76765;SDS011;65707;52.362;6.588;2023-10-08T09:31:37;9.55;;;1.73;;
76765;SDS011;65707;52.362;6.588;2023-10-08T09:34:03;10.05;;;1.50;;
76765;SDS011;65707;52.362;6.588;2023-10-08T09:36:30;10.68;;;1.33;;
76765;SDS011;65707;52.362;6.588;2023-10-08T09:38:59;9.43;;;1.33;;
76765;SDS011;65707;52.362;6.588;2023-10-08T09:41:29;8.10;;;2.13;;
76765;SDS011;65707;52.362;6.588;2023-10-08T09:44:01;8.30;;;1.27;;
76765;SDS011;65707;52.362;6.588;2023-10-08T09:46:31;9.38;;;1.25;;
76765;SDS011;65707;52.362;6.588;2023-10-08T09:49:00;10.07;;;1.25;;
76765;SDS011;65707;52.362;6.588;2023-10-08T09:51:33;8.25;;;1.25;;
76765;SDS011;65707;52.362;6.588;2023-10-08T09:54:08;8.38;;;1.10;;
76765;SDS011;65707;52.362;6.588;2023-10-08T09:56:39;7.82;;;1.55;;
76765;SDS011;65707;52.362;6.588;2023-10-08T09:59:09;8.27;;;1.50;;
76765;SDS011;65707;52.362;6.588;2023-10-08T10:01:38;6.72;;;1.23;;
76765;SDS011;65707;52.362;6.588;2023-10-08T10:04:08;9.70;;;1.40;;
76765;SDS011;65707;52.362;6.588;2023-10-08T10:06:37;7.90;;;1.50;;
76765;SDS011;65707;52.362;6.588;2023-10-08T10:09:05;7.88;;;1.40;;
76765;SDS011;65707;52.362;6.588;2023-10-08T10:11:40;8.32;;;1.48;;
76765;SDS011;65707;52.362;6.588;2023-10-08T10:14:14;6.65;;;1.45;;
76765;SDS011;65707;52.362;6.588;2023-10-08T10:16:44;7.05;;;1.30;;
76765;SDS011;65707;52.362;6.588;2023-10-08T10:19:17;6.90;;;1.45;;
76765;SDS011;65707;52.362;6.588;2023-10-08T10:21:47;7.35;;;1.50;;
76765;SDS011;65707;52.362;6.588;2023-10-08T10:24:28;6.03;;;1.30;;
76765;SDS011;65707;52.362;6.588;2023-10-08T10:27:11;10.38;;;1.48;;
76765;SDS011;65707;52.362;6.588;2023-10-08T10:29:41;6.55;;;1.27;;
76765;SDS011;65707;52.362;6.588;2023-10-08T10:32:11;7.03;;;1.10;;
76765;SDS011;65707;52.362;6.588;2023-10-08T10:34:40;6.70;;;1.27;;
76765;SDS011;65707;52.362;6.588;2023-10-08T10:37:08;7.25;;;1.30;;
76765;SDS011;65707;52.362;6.588;2023-10-08T10:39:50;7.10;;;1.30;;
76765;SDS011;65707;52.362;6.588;2023-10-08T10:42:24;7.97;;;1.33;;
76765;SDS011;65707;52.362;6.588;2023-10-08T10:44:54;7.82;;;1.33;;
76765;SDS011;65707;52.362;6.588;2023-10-08T10:47:25;7.10;;;1.30;;
76765;SDS011;65707;52.362;6.588;2023-10-08T10:50:07;7.30;;;1.10;;
76765;SDS011;65707;52.362;6.588;2023-10-08T10:52:51;5.25;;;1.00;;
76765;SDS011;65707;52.362;6.588;2023-10-08T10:55:18;6.10;;;1.00;;
76765;SDS011;65707;52.362;6.588;2023-10-08T10:57:56;7.55;;;1.30;;
76765;SDS011;65707;52.362;6.588;2023-10-08T11:00:29;7.85;;;1.20;;
76765;SDS011;65707;52.362;6.588;2023-10-08T11:03:27;7.63;;;1.05;;
76765;SDS011;65707;52.362;6.588;2023-10-08T11:05:55;7.97;;;1.08;;
76765;SDS011;65707;52.362;6.588;2023-10-08T11:08:30;5.85;;;1.25;;
76765;SDS011;65707;52.362;6.588;2023-10-08T11:11:00;7.03;;;1.20;;
76765;SDS011;65707;52.362;6.588;2023-10-08T11:13:30;8.30;;;1.13;;
76765;SDS011;65707;52.362;6.588;2023-10-08T11:16:04;6.93;;;1.23;;
76765;SDS011;65707;52.362;6.588;2023-10-08T11:18:33;8.27;;;1.10;;
76765;SDS011;65707;52.362;6.588;2023-10-08T11:21:06;7.15;;;1.48;;
76765;SDS011;65707;52.362;6.588;2023-10-08T11:23:41;7.78;;;1.10;;
76765;SDS011;65707;52.362;6.588;2023-10-08T11:26:11;5.85;;;1.02;;
76765;SDS011;65707;52.362;6.588;2023-10-08T11:28:40;4.75;;;0.90;;
76765;SDS011;65707;52.362;6.588;2023-10-08T11:31:10;6.13;;;1.10;;
76765;SDS011;65707;52.362;6.588;2023-10-08T11:33:41;5.75;;;1.00;;
76765;SDS011;65707;52.362;6.588;2023-10-08T11:36:19;8.07;;;1.52;;
76765;SDS011;65707;52.362;6.588;2023-10-08T11:38:52;6.82;;;1.13;;
76765;SDS011;65707;52.362;6.588;2023-10-08T11:41:26;6.80;;;1.23;;
76765;SDS011;65707;52.362;6.588;2023-10-08T11:43:55;7.25;;;1.40;;
76765;SDS011;65707;52.362;6.588;2023-10-08T11:46:24;6.15;;;1.10;;
76765;SDS011;65707;52.362;6.588;2023-10-08T11:48:59;8.18;;;1.38;;
76765;SDS011;65707;52.362;6.588;2023-10-08T11:51:29;9.48;;;1.40;;
76765;SDS011;65707;52.362;6.588;2023-10-08T11:56:28;6.35;;;1.13;;
76765;SDS011;65707;52.362;6.588;2023-10-08T11:58:59;7.93;;;1.10;;
76765;SDS011;65707;52.362;6.588;2023-10-08T12:01:33;7.57;;;1.02;;
76765;SDS011;65707;52.362;6.588;2023-10-08T12:04:02;7.53;;;1.40;;
76765;SDS011;65707;52.362;6.588;2023-10-08T12:06:29;8.40;;;1.27;;
76765;SDS011;65707;52.362;6.588;2023-10-08T12:08:56;5.15;;;0.93;;
76765;SDS011;65707;52.362;6.588;2023-10-08T12:11:24;31.33;;;7.95;;
76765;SDS011;65707;52.362;6.588;2023-10-08T12:13:56;7.32;;;1.00;;
76765;SDS011;65707;52.362;6.588;2023-10-08T12:16:24;5.65;;;1.13;;
76765;SDS011;65707;52.362;6.588;2023-10-08T12:18:55;7.40;;;1.20;;
76765;SDS011;65707;52.362;6.588;2023-10-08T12:21:26;5.75;;;1.05;;
76765;SDS011;65707;52.362;6.588;2023-10-08T12:23:55;4.82;;;1.05;;
76765;SDS011;65707;52.362;6.588;2023-10-08T12:26:23;7.00;;;1.20;;
76765;SDS011;65707;52.362;6.588;2023-10-08T12:28:50;7.28;;;1.20;;
76765;SDS011;65707;52.362;6.588;2023-10-08T12:31:19;5.85;;;1.13;;
76765;SDS011;65707;52.362;6.588;2023-10-08T12:33:47;7.35;;;1.40;;
76765;SDS011;65707;52.362;6.588;2023-10-08T12:36:18;5.40;;;1.00;;
76765;SDS011;65707;52.362;6.588;2023-10-08T12:38:49;6.30;;;1.13;;
76765;SDS011;65707;52.362;6.588;2023-10-08T12:41:22;4.30;;;1.00;;
76765;SDS011;65707;52.362;6.588;2023-10-08T12:43:50;7.88;;;1.35;;
76765;SDS011;65707;52.362;6.588;2023-10-08T12:46:18;8.35;;;1.55;;
76765;SDS011;65707;52.362;6.588;2023-10-08T12:48:49;6.18;;;1.35;;
76765;SDS011;65707;52.362;6.588;2023-10-08T12:51:19;10.60;;;1.50;;
76765;SDS011;65707;52.362;6.588;2023-10-08T12:53:50;8.02;;;1.63;;
76765;SDS011;65707;52.362;6.588;2023-10-08T12:56:24;5.40;;;1.40;;
76765;SDS011;65707;52.362;6.588;2023-10-08T12:59:00;7.65;;;1.35;;
76765;SDS011;65707;52.362;6.588;2023-10-08T13:01:29;8.63;;;1.50;;
76765;SDS011;65707;52.362;6.588;2023-10-08T13:03:56;8.30;;;1.70;;
76765;SDS011;65707;52.362;6.588;2023-10-08T13:06:26;7.07;;;1.40;;
76765;SDS011;65707;52.362;6.588;2023-10-08T13:08:56;8.45;;;1.50;;
76765;SDS011;65707;52.362;6.588;2023-10-08T13:11:24;8.38;;;1.67;;
76765;SDS011;65707;52.362;6.588;2023-10-08T13:13:54;7.90;;;1.70;;
76765;SDS011;65707;52.362;6.588;2023-10-08T13:16:23;9.30;;;1.60;;
76765;SDS011;65707;52.362;6.588;2023-10-08T13:18:56;8.68;;;1.60;;
76765;SDS011;65707;52.362;6.588;2023-10-08T13:21:23;8.50;;;1.70;;
76765;SDS011;65707;52.362;6.588;2023-10-08T13:23:52;8.85;;;1.73;;
76765;SDS011;65707;52.362;6.588;2023-10-08T13:26:23;7.55;;;1.70;;
76765;SDS011;65707;52.362;6.588;2023-10-08T13:28:54;6.00;;;1.65;;
76765;SDS011;65707;52.362;6.588;2023-10-08T13:31:21;8.45;;;1.73;;
76765;SDS011;65707;52.362;6.588;2023-10-08T13:33:48;7.88;;;1.58;;
76765;SDS011;65707;52.362;6.588;2023-10-08T13:36:20;8.73;;;1.50;;
76765;SDS011;65707;52.362;6.588;2023-10-08T13:38:46;9.45;;;1.60;;
76765;SDS011;65707;52.362;6.588;2023-10-08T13:41:16;7.50;;;1.77;;
76765;SDS011;65707;52.362;6.588;2023-10-08T13:43:45;5.60;;;1.30;;
76765;SDS011;65707;52.362;6.588;2023-10-08T13:46:16;6.80;;;1.67;;
76765;SDS011;65707;52.362;6.588;2023-10-08T13:48:47;7.05;;;1.70;;
76765;SDS011;65707;52.362;6.588;2023-10-08T13:51:15;7.65;;;1.60;;
76765;SDS011;65707;52.362;6.588;2023-10-08T13:53:50;7.47;;;1.52;;
76765;SDS011;65707;52.362;6.588;2023-10-08T13:56:24;6.68;;;1.80;;
76765;SDS011;65707;52.362;6.588;2023-10-08T13:58:56;9.20;;;2.42;;
76765;SDS011;65707;52.362;6.588;2023-10-08T14:01:29;6.97;;;1.70;;
76765;SDS011;65707;52.362;6.588;2023-10-08T14:03:58;8.35;;;1.58;;
76765;SDS011;65707;52.362;6.588;2023-10-08T14:06:31;6.68;;;1.33;;
76765;SDS011;65707;52.362;6.588;2023-10-08T14:08:58;6.90;;;1.90;;
76765;SDS011;65707;52.362;6.588;2023-10-08T14:11:26;7.25;;;1.50;;
76765;SDS011;65707;52.362;6.588;2023-10-08T14:13:56;7.22;;;1.30;;
76765;SDS011;65707;52.362;6.588;2023-10-08T14:16:23;7.43;;;1.50;;
76765;SDS011;65707;52.362;6.588;2023-10-08T14:18:54;6.20;;;1.40;;
76765;SDS011;65707;52.362;6.588;2023-10-08T14:21:24;6.78;;;1.23;;
76765;SDS011;65707;52.362;6.588;2023-10-08T14:23:55;6.47;;;1.23;;
76765;SDS011;65707;52.362;6.588;2023-10-08T14:26:28;5.78;;;1.30;;
76765;SDS011;65707;52.362;6.588;2023-10-08T14:29:02;7.72;;;1.40;;
76765;SDS011;65707;52.362;6.588;2023-10-08T14:31:35;7.18;;;1.60;;
76765;SDS011;65707;52.362;6.588;2023-10-08T14:34:04;7.55;;;1.70;;
76765;SDS011;65707;52.362;6.588;2023-10-08T14:36:44;9.95;;;1.45;;
76765;SDS011;65707;52.362;6.588;2023-10-08T14:39:29;7.05;;;1.60;;
76765;SDS011;65707;52.362;6.588;2023-10-08T14:42:09;7.43;;;1.20;;
76765;SDS011;65707;52.362;6.588;2023-10-08T14:44:56;7.03;;;1.27;;
76765;SDS011;65707;52.362;6.588;2023-10-08T14:47:22;6.07;;;1.27;;
76765;SDS011;65707;52.362;6.588;2023-10-08T14:49:49;8.38;;;1.40;;
76765;SDS011;65707;52.362;6.588;2023-10-08T14:52:16;5.28;;;1.25;;
76765;SDS011;65707;52.362;6.588;2023-10-08T14:54:43;11.65;;;1.55;;
76765;SDS011;65707;52.362;6.588;2023-10-08T14:57:10;6.60;;;1.30;;
76765;SDS011;65707;52.362;6.588;2023-10-08T14:59:39;5.65;;;1.30;;
76765;SDS011;65707;52.362;6.588;2023-10-08T15:02:08;6.25;;;1.30;;
76765;SDS011;65707;52.362;6.588;2023-10-08T15:04:36;7.93;;;1.70;;
76765;SDS011;65707;52.362;6.588;2023-10-08T15:07:04;6.28;;;1.20;;
76765;SDS011;65707;52.362;6.588;2023-10-08T15:09:33;7.38;;;1.58;;
76765;SDS011;65707;52.362;6.588;2023-10-08T15:12:01;5.20;;;1.13;;
76765;SDS011;65707;52.362;6.588;2023-10-08T15:14:27;5.55;;;1.52;;
76765;SDS011;65707;52.362;6.588;2023-10-08T15:16:54;6.93;;;1.40;;
76765;SDS011;65707;52.362;6.588;2023-10-08T15:19:23;7.00;;;1.30;;
76765;SDS011;65707;52.362;6.588;2023-10-08T15:21:50;7.40;;;1.70;;
76765;SDS011;65707;52.362;6.588;2023-10-08T15:24:18;7.88;;;1.70;;
76765;SDS011;65707;52.362;6.588;2023-10-08T15:26:51;6.63;;;1.50;;
76765;SDS011;65707;52.362;6.588;2023-10-08T15:29:18;9.00;;;2.38;;